Time;durP1;ratioP1;P1;durP2;ratioP2;P2;SDS_P1;SDS_P2;PMS_P1;PMS_P2;Temp;Humidity;BMP_temperature;BMP_pressure;BME280_temperature;BME280_humidity;BME280_pressure;Samples;Min_cycle;Max_cycle;Signal;HPM_P1;HPM_P2
2023/09/30 05:56:52;;;;;;;13.38;3.70;;;;;;;22.66;100.00;101431.06;21204039;27;20464;-73
2023/09/30 06:07:14;;;;;;;13.52;3.15;;;;;;;23.45;100.00;101417.44;21192975;27;20055;-72
2023/09/30 06:17:39;;;;;;;11.93;3.30;;;;;;;23.46;100.00;101419.19;21207418;27;20051;-73
2023/09/30 06:28:03;;;;;;;14.82;3.40;;;;;;;23.47;100.00;101417.41;21192053;27;20085;-72
2023/09/30 06:38:28;;;;;;;13.32;3.38;;;;;;;23.36;100.00;101434.75;21195642;27;20058;-71
2023/09/30 06:48:52;;;;;;;11.35;3.17;;;;;;;23.33;100.00;101447.41;21194001;27;20081;-73
2023/09/30 06:59:17;;;;;;;14.82;3.60;;;;;;;23.62;100.00;101454.75;21173892;28;20062;-73
2023/09/30 07:09:40;;;;;;;10.00;3.33;;;;;;;23.66;100.00;101449.25;21117696;28;20047;-72
2023/09/30 07:20:05;;;;;;;10.10;3.20;;;;;;;23.72;100.00;101453.56;21097792;28;20052;-72
2023/09/30 07:30:28;;;;;;;10.98;3.10;;;;;;;24.30;100.00;101433.91;21150684;27;20117;-72
2023/09/30 07:40:52;;;;;;;14.75;3.88;;;;;;;23.93;100.00;101430.50;21072647;28;20040;-72
2023/09/30 07:51:15;;;;;;;10.13;3.30;;;;;;;24.08;100.00;101403.97;21133418;28;20442;-72
2023/09/30 08:01:39;;;;;;;11.70;2.92;;;;;;;24.78;100.00;101371.19;21084338;28;20090;-72
2023/09/30 08:12:02;;;;;;;13.48;3.25;;;;;;;25.67;100.00;101354.53;21097344;28;20395;-72
2023/09/30 08:22:27;;;;;;;13.07;3.33;;;;;;;26.45;100.00;101351.53;21118069;28;20047;-73
2023/09/30 08:32:50;;;;;;;10.10;3.07;;;;;;;26.80;100.00;101318.41;21134082;27;20088;-71
2023/09/30 08:43:18;;;;;;;13.00;3.45;;;;;;;26.50;100.00;101315.19;21136241;28;20481;-72
2023/09/30 08:53:42;;;;;;;8.60;2.65;;;;;;;27.15;100.00;101306.09;21141707;27;20131;-72
2023/09/30 09:04:08;;;;;;;9.20;3.15;;;;;;;27.64;100.00;101301.16;21110176;28;20151;-72
2023/09/30 09:14:41;;;;;;;12.00;3.58;;;;;;;27.50;100.00;101301.78;21101340;28;20408;-72
2023/09/30 09:25:07;;;;;;;11.95;5.35;;;;;;;27.73;100.00;101298.03;21110940;28;20044;-71
2023/09/30 09:35:32;;;;;;;26.23;22.00;;;;;;;28.06;100.00;101276.53;21133948;28;20044;-71
2023/09/30 09:46:03;;;;;;;11.23;4.80;;;;;;;28.39;100.00;101261.31;21131886;28;20130;-71
2023/09/30 09:56:27;;;;;;;8.40;3.40;;;;;;;28.13;100.00;101253.56;21129976;28;20047;-71
2023/09/30 10:06:55;;;;;;;10.45;3.67;;;;;;;28.52;100.00;101251.59;21132531;28;20062;-70
2023/09/30 10:17:17;;;;;;;12.48;3.70;;;;;;;28.32;99.99;101240.84;21102073;28;20059;-71
2023/09/30 10:27:43;;;;;;;11.23;3.80;;;;;;;28.18;96.24;101237.06;21129997;28;20116;-71
2023/09/30 10:38:42;;;;;;;9.70;3.13;;;;;;;28.41;91.06;101232.25;21136263;28;20088;-71
2023/09/30 10:49:35;;;;;;;7.28;2.70;;;;;;;28.49;89.70;101223.69;21143424;28;20058;-70
2023/09/30 11:00:11;;;;;;;14.95;3.20;;;;;;;28.46;90.78;101216.59;21154089;27;20075;-71
2023/09/30 11:10:36;;;;;;;10.60;4.20;;;;;;;28.26;95.35;101219.44;21121700;27;20061;-71
2023/09/30 11:32:27;;;;;;;8.57;3.63;;;;;;;28.43;88.63;101197.72;21016720;27;21092;-70
2023/09/30 11:43:11;;;;;;;11.32;3.92;;;;;;;28.58;89.69;101198.75;21024059;28;20101;-70
2023/09/30 11:53:37;;;;;;;11.00;3.50;;;;;;;28.41;94.78;101180.63;21021001;28;20079;-70
2023/09/30 12:04:00;;;;;;;11.32;4.30;;;;;;;28.43;96.59;101195.00;21001089;28;20061;-70
2023/09/30 12:14:24;;;;;;;12.40;3.75;;;;;;;28.36;99.21;101198.97;21001081;28;20049;-70
2023/09/30 12:24:47;;;;;;;21.80;4.72;;;;;;;28.45;100.00;101184.94;20996482;28;20048;-70
2023/09/30 12:35:12;;;;;;;12.73;4.03;;;;;;;28.50;100.00;101168.38;20984405;28;20048;-70
2023/09/30 12:45:35;;;;;;;14.93;4.60;;;;;;;28.21;100.00;101167.19;20966400;28;20094;-70
2023/09/30 12:56:00;;;;;;;13.65;4.30;;;;;;;28.48;97.64;101160.34;21003619;28;20048;-70
2023/09/30 13:06:22;;;;;;;16.13;4.63;;;;;;;28.47;97.88;101144.09;20979810;28;20051;-69
2023/09/30 13:16:47;;;;;;;11.32;4.00;;;;;;;28.41;98.57;101148.03;20994303;28;20102;-70
2023/09/30 13:27:10;;;;;;;10.23;3.85;;;;;;;28.25;96.51;101128.03;20959217;28;20483;-70
2023/09/30 13:37:34;;;;;;;14.00;3.70;;;;;;;28.24;97.18;101137.16;20967193;28;20044;-70
2023/09/30 13:47:57;;;;;;;12.73;4.05;;;;;;;27.79;98.40;101131.31;20949507;28;20148;-69
2023/09/30 13:58:21;;;;;;;13.63;4.47;;;;;;;27.38;97.68;101120.59;20968511;28;20575;-69
2023/09/30 14:08:44;;;;;;;11.02;4.50;;;;;;;27.01;98.27;101135.03;20965107;28;20500;-69
2023/09/30 14:19:08;;;;;;;12.40;4.30;;;;;;;26.83;99.76;101131.31;20965836;28;20048;-69
2023/09/30 14:29:32;;;;;;;10.32;4.45;;;;;;;26.42;100.00;101130.47;20946437;28;20131;-69
2023/09/30 14:39:56;;;;;;;10.40;4.30;;;;;;;26.19;100.00;101125.13;20969773;28;20056;-70
2023/09/30 14:50:19;;;;;;;11.40;4.70;;;;;;;25.98;100.00;101136.91;20977850;28;20102;-69
2023/09/30 15:00:43;;;;;;;12.77;4.80;;;;;;;25.81;100.00;101129.47;20954747;28;20045;-70
2023/09/30 15:11:06;;;;;;;12.80;4.45;;;;;;;25.75;100.00;101135.13;20949409;28;20037;-69
2023/09/30 15:21:31;;;;;;;12.88;4.72;;;;;;;25.62;100.00;101129.34;20951540;28;20047;-69
2023/09/30 15:31:53;;;;;;;12.50;4.75;;;;;;;25.47;100.00;101146.13;20924319;28;20111;-69
2023/09/30 15:42:19;;;;;;;10.77;5.05;;;;;;;25.42;100.00;101154.44;20963271;28;20071;-70
2023/09/30 15:52:41;;;;;;;9.57;4.85;;;;;;;25.15;100.00;101149.22;20894893;28;20110;-70
2023/09/30 16:03:07;;;;;;;9.60;4.22;;;;;;;24.97;100.00;101154.41;20908772;28;20319;-70
2023/09/30 16:13:29;;;;;;;14.85;5.32;;;;;;;24.90;100.00;101160.97;20953207;28;20064;-68
2023/09/30 16:23:54;;;;;;;12.02;4.78;;;;;;;24.88;100.00;101157.41;20946941;28;20135;-70
2023/09/30 16:34:17;;;;;;;12.30;4.55;;;;;;;24.92;100.00;101167.22;20972228;28;20043;-70
2023/09/30 16:44:42;;;;;;;10.50;4.55;;;;;;;24.93;100.00;101160.00;20961942;28;20057;-70
2023/09/30 16:55:07;;;;;;;18.67;6.90;;;;;;;24.75;100.00;101190.31;20953597;28;20055;-70
2023/09/30 17:05:32;;;;;;;11.85;6.93;;;;;;;24.44;100.00;101198.63;20960105;28;20040;-70
2023/09/30 17:15:55;;;;;;;12.75;6.40;;;;;;;24.20;100.00;101203.06;20999133;28;20048;-69
2023/09/30 17:26:21;;;;;;;13.18;5.75;;;;;;;24.17;100.00;101212.09;20994693;28;20048;-69
2023/09/30 17:36:44;;;;;;;15.75;6.00;;;;;;;24.07;100.00;101201.66;20977608;28;20052;-68
2023/09/30 17:47:09;;;;;;;13.85;6.10;;;;;;;24.09;100.00;101213.31;20965698;28;20144;-69
2023/09/30 17:57:32;;;;;;;15.73;5.43;;;;;;;23.99;100.00;101218.09;20990869;28;20044;-69
2023/09/30 18:07:58;;;;;;;20.70;10.95;;;;;;;23.96;100.00;101233.53;20980535;28;20048;-68
2023/09/30 18:18:21;;;;;;;18.50;6.97;;;;;;;23.86;100.00;101234.72;20965259;28;20160;-69
2023/09/30 18:28:45;;;;;;;12.85;5.60;;;;;;;23.76;100.00;101221.50;20969171;28;20102;-69
2023/09/30 18:39:08;;;;;;;19.20;10.00;;;;;;;23.64;100.00;101221.91;20966912;28;20064;-69
2023/09/30 18:49:33;;;;;;;12.77;5.70;;;;;;;23.62;100.00;101223.78;20984367;28;20063;-68
2023/09/30 18:59:55;;;;;;;13.98;5.90;;;;;;;23.58;100.00;101214.00;20963961;28;20044;-69
2023/09/30 19:10:21;;;;;;;13.18;6.10;;;;;;;23.56;100.00;101221.28;20957007;28;20387;-69
2023/09/30 19:20:45;;;;;;;11.40;5.85;;;;;;;23.53;100.00;101215.09;20956436;28;20052;-69
2023/09/30 19:31:11;;;;;;;16.83;5.68;;;;;;;23.59;100.00;101201.41;20941970;28;20053;-69
2023/09/30 19:41:39;;;;;;;12.85;4.60;;;;;;;23.47;100.00;101202.69;20925657;28;20052;-69
2023/09/30 19:52:04;;;;;;;15.17;5.20;;;;;;;23.45;100.00;101201.81;20971003;28;20469;-68
2023/09/30 20:02:27;;;;;;;11.68;4.78;;;;;;;23.42;100.00;101207.31;20950752;28;20052;-68
2023/09/30 20:12:52;;;;;;;13.32;4.28;;;;;;;23.40;100.00;101206.47;20946348;28;20052;-69
2023/09/30 20:23:16;;;;;;;12.35;4.68;;;;;;;23.37;100.00;101215.50;21001182;28;20060;-69
2023/09/30 20:33:42;;;;;;;12.38;3.70;;;;;;;23.30;100.00;101215.75;20982523;28;20439;-68
2023/09/30 20:44:07;;;;;;;11.38;4.13;;;;;;;23.19;100.00;101204.38;21011384;28;20484;-69
2023/09/30 20:54:32;;;;;;;9.68;4.10;;;;;;;23.08;100.00;101201.13;20999830;28;20048;-68
2023/09/30 21:04:55;;;;;;;10.00;3.85;;;;;;;22.96;100.00;101197.00;20939794;28;20052;-68
2023/09/30 21:15:19;;;;;;;8.30;3.88;;;;;;;22.87;100.00;101191.84;20958728;28;20069;-68
2023/09/30 21:25:42;;;;;;;11.15;4.30;;;;;;;22.77;100.00;101195.75;21012645;28;20048;-68
2023/09/30 21:36:07;;;;;;;14.75;4.35;;;;;;;22.61;100.00;101190.75;20987303;28;20134;-69
2023/09/30 21:46:29;;;;;;;11.95;4.35;;;;;;;22.58;100.00;101182.72;20999512;28;20052;-69
2023/09/30 21:56:55;;;;;;;10.50;4.82;;;;;;;22.61;100.00;101188.03;20987217;28;20040;-68
2023/09/30 22:07:22;;;;;;;12.27;4.38;;;;;;;22.82;100.00;101181.22;20956284;28;20189;-69
2023/09/30 22:17:47;;;;;;;15.82;4.95;;;;;;;22.89;100.00;101182.81;21010968;28;20044;-68
2023/09/30 22:28:11;;;;;;;14.45;5.22;;;;;;;22.87;100.00;101173.88;20932327;28;20094;-69
2023/09/30 22:38:35;;;;;;;13.00;4.25;;;;;;;22.88;100.00;101164.00;20928964;28;20044;-69
2023/09/30 22:48:59;;;;;;;11.93;4.22;;;;;;;22.87;100.00;101152.34;21002664;28;20049;-68
2023/09/30 22:59:24;;;;;;;11.23;4.32;;;;;;;22.84;100.00;101154.25;20957438;28;20072;-68
2023/09/30 23:09:47;;;;;;;14.05;4.32;;;;;;;22.70;100.00;101153.72;20929539;28;20378;-68
2023/09/30 23:20:14;;;;;;;9.10;4.13;;;;;;;22.57;100.00;101143.31;20982511;28;20052;-69
2023/09/30 23:30:38;;;;;;;10.85;4.35;;;;;;;22.48;100.00;101134.59;20952635;28;20052;-68
2023/09/30 23:41:08;;;;;;;11.90;4.60;;;;;;;22.43;100.00;101123.97;20958140;28;20107;-68
2023/09/30 23:51:31;;;;;;;10.88;4.32;;;;;;;22.40;100.00;101117.78;20995184;28;20149;-68
